Time;durP1;ratioP1;P1;durP2;ratioP2;P2;SDS_P1;SDS_P2;PMS_P1;PMS_P2;Temp;Humidity;BMP_temperature;BMP_pressure;BME280_temperature;BME280_humidity;BME280_pressure;Samples;Min_cycle;Max_cycle;Signal;HPM_P1;HPM_P2
2022/07/25 00:00:15;;;;;;;7.07;4.62;;;;;;;23.14;45.89;99933.91;4242835;33;35650;-73
2022/07/25 00:03:02;;;;;;;6.20;4.40;;;;;;;23.42;45.92;99929.69;4251222;33;37200;-73
2022/07/25 00:05:48;;;;;;;7.05;4.47;;;;;;;23.51;45.83;99932.94;4253167;33;34529;-73
2022/07/25 00:08:34;;;;;;;7.37;4.60;;;;;;;23.65;44.95;99927.41;4252600;33;33042;-74
2022/07/25 00:11:20;;;;;;;6.82;4.43;;;;;;;23.64;44.91;99925.78;4268277;33;35201;-73
2022/07/25 00:14:07;;;;;;;7.25;4.00;;;;;;;23.54;44.81;99923.78;4257076;33;34991;-73
2022/07/25 00:16:53;;;;;;;6.00;4.07;;;;;;;23.17;45.98;99916.38;4244637;33;34026;-73
2022/07/25 00:19:40;;;;;;;5.68;4.05;;;;;;;23.25;45.63;99920.81;4247203;33;33663;-73
2022/07/25 00:22:26;;;;;;;7.50;4.07;;;;;;;23.37;45.14;99921.66;4259069;33;34265;-73
2022/07/25 00:25:12;;;;;;;6.10;4.20;;;;;;;23.51;45.23;99919.75;4253743;33;35976;-73
2022/07/25 00:27:59;;;;;;;6.75;4.18;;;;;;;23.31;45.18;99910.88;4259625;33;34714;-73
2022/07/25 00:30:45;;;;;;;7.68;4.00;;;;;;;23.49;44.88;99916.53;4254441;33;34253;-73
2022/07/25 00:33:31;;;;;;;5.43;4.18;;;;;;;23.37;44.95;99916.87;4261527;33;33032;-73
2022/07/25 00:36:18;;;;;;;5.60;4.07;;;;;;;23.03;45.81;99916.28;4246425;33;36000;-73
2022/07/25 00:39:04;;;;;;;5.60;3.87;;;;;;;23.31;45.18;99913.66;4244003;33;35117;-74
2022/07/25 00:41:50;;;;;;;5.40;3.62;;;;;;;23.39;45.05;99914.47;4253132;33;34127;-73
2022/07/25 00:44:37;;;;;;;5.45;3.90;;;;;;;23.18;45.87;99920.75;4255035;33;34793;-73
2022/07/25 00:47:23;;;;;;;5.12;3.50;;;;;;;23.07;45.86;99915.09;4259562;33;36169;-73
2022/07/25 00:50:09;;;;;;;7.20;3.87;;;;;;;22.99;45.90;99921.03;4255385;33;34794;-73
2022/07/25 00:52:56;;;;;;;5.28;3.80;;;;;;;22.77;46.33;99920.00;4252154;33;35067;-73
2022/07/25 00:55:43;;;;;;;7.45;3.90;;;;;;;23.01;45.70;99918.66;4256134;33;34679;-73
2022/07/25 00:58:29;;;;;;;5.53;4.00;;;;;;;22.87;46.18;99914.53;4252504;33;34626;-73
2022/07/25 01:01:15;;;;;;;5.57;3.50;;;;;;;22.87;46.33;99914.53;4255247;33;34307;-73
2022/07/25 01:04:02;;;;;;;5.22;3.83;;;;;;;22.90;46.20;99919.34;4255479;33;34215;-73
2022/07/25 01:06:49;;;;;;;5.37;3.95;;;;;;;22.72;46.50;99906.44;4240125;33;35204;-73
2022/07/25 01:09:36;;;;;;;7.12;3.78;;;;;;;22.65;46.81;99905.19;4242420;33;33811;-73
2022/07/25 01:12:22;;;;;;;7.57;3.75;;;;;;;22.84;46.25;99911.72;4258429;33;34743;-73
2022/07/25 01:15:09;;;;;;;5.55;3.50;;;;;;;22.68;46.58;99911.97;4252261;33;34817;-73
2022/07/25 01:17:55;;;;;;;4.53;3.17;;;;;;;23.02;45.74;99915.44;4242997;33;35645;-73
2022/07/25 01:20:42;;;;;;;5.75;3.60;;;;;;;22.58;46.75;99918.28;4244646;33;35011;-73
2022/07/25 01:23:28;;;;;;;6.70;3.42;;;;;;;22.77;45.87;99903.25;4243941;33;35168;-73
2022/07/25 01:26:15;;;;;;;6.72;3.78;;;;;;;22.92;46.20;99910.56;4258659;33;32651;-73
2022/07/25 01:29:01;;;;;;;6.20;3.40;;;;;;;22.63;46.72;99917.94;4258210;33;35424;-73
2022/07/25 01:31:48;;;;;;;4.68;3.28;;;;;;;22.48;46.93;99914.19;4253033;33;34691;-73
2022/07/25 01:34:34;;;;;;;5.05;3.25;;;;;;;22.78;45.64;99914.06;4255130;33;34579;-74
2022/07/25 01:37:21;;;;;;;5.97;3.70;;;;;;;22.33;46.95;99907.69;4255446;33;33860;-73
2022/07/25 01:40:07;;;;;;;5.50;3.30;;;;;;;22.40;46.84;99906.97;4248418;33;34813;-73
2022/07/25 01:42:54;;;;;;;5.95;3.70;;;;;;;22.57;46.87;99905.50;4232677;33;34508;-73
2022/07/25 01:45:40;;;;;;;5.30;3.70;;;;;;;22.54;46.98;99895.09;4253607;33;34507;-73
2022/07/25 01:48:27;;;;;;;5.62;3.65;;;;;;;22.29;47.27;99911.63;4254553;33;34416;-73
2022/07/25 01:51:13;;;;;;;6.30;3.90;;;;;;;21.62;49.91;99906.84;4252988;33;34686;-73
2022/07/25 01:54:05;;;;;;;6.10;3.62;;;;;;;22.08;48.34;99904.59;4242903;33;34716;-73
2022/07/25 01:56:55;;;;;;;4.90;3.40;;;;;;;22.39;47.68;99906.12;4248791;33;34517;-73
2022/07/25 01:59:41;;;;;;;4.62;3.30;;;;;;;22.30;47.80;99902.87;4257093;33;34142;-73
2022/07/25 02:02:28;;;;;;;5.40;3.65;;;;;;;22.19;47.96;99904.75;4252958;33;35492;-73
2022/07/25 02:05:14;;;;;;;4.32;3.33;;;;;;;21.97;48.26;99896.13;4254111;33;34613;-73
2022/07/25 02:08:01;;;;;;;5.62;3.78;;;;;;;22.04;48.37;99900.19;4256894;33;34492;-73
2022/07/25 02:10:48;;;;;;;4.65;3.20;;;;;;;21.79;49.00;99895.09;4254194;33;34956;-73
2022/07/25 02:13:34;;;;;;;5.82;3.78;;;;;;;21.63;49.50;99886.16;4255614;33;36198;-73
2022/07/25 02:16:20;;;;;;;7.12;4.07;;;;;;;21.82;49.92;99883.19;4261303;33;34693;-73
2022/07/25 02:19:14;;;;;;;5.07;3.60;;;;;;;21.62;50.77;99890.12;4248561;33;35227;-73
2022/07/25 02:22:01;;;;;;;6.97;3.97;;;;;;;21.97;50.24;99896.13;4260543;33;34154;-73
2022/07/25 02:24:46;;;;;;;5.57;3.90;;;;;;;21.70;50.86;99891.81;4245378;33;35519;-73
2022/07/25 02:27:33;;;;;;;8.25;4.43;;;;;;;21.20;53.25;99897.50;4263602;33;35244;-72
2022/07/25 02:30:19;;;;;;;7.07;4.37;;;;;;;20.84;54.26;99890.62;4254987;33;34383;-72
2022/07/25 02:33:05;;;;;;;5.90;4.07;;;;;;;20.81;54.69;99896.94;4255977;33;34105;-72
2022/07/25 02:35:52;;;;;;;7.07;3.95;;;;;;;20.79;54.40;99893.72;4249199;33;34752;-72
2022/07/25 02:38:38;;;;;;;6.57;4.22;;;;;;;21.14;53.51;99898.22;4245441;33;35461;-72
2022/07/25 02:41:25;;;;;;;6.53;4.10;;;;;;;21.20;53.33;99899.50;4258364;33;35762;-72
2022/07/25 02:44:11;;;;;;;7.70;3.83;;;;;;;21.07;53.52;99899.72;4258053;33;34943;-72
2022/07/25 02:46:57;;;;;;;6.50;4.32;;;;;;;20.65;54.87;99897.06;4253376;33;34266;-72
2022/07/25 02:49:43;;;;;;;8.15;3.80;;;;;;;21.12;53.27;99896.63;4256704;33;36779;-72
2022/07/25 02:52:30;;;;;;;6.62;4.03;;;;;;;20.26;55.83;99893.56;4263145;33;34817;-72
2022/07/25 02:55:16;;;;;;;6.00;3.65;;;;;;;21.15;53.30;99902.63;4249434;33;33737;-72
2022/07/25 02:58:02;;;;;;;7.72;4.75;;;;;;;21.28;52.89;99913.16;4250551;33;34766;-72
2022/07/25 03:00:49;;;;;;;4.72;4.20;;;;;;;21.29;52.73;99905.62;4256489;33;34856;-72
2022/07/25 03:03:35;;;;;;;5.40;4.22;;;;;;;21.19;53.10;99903.47;4254660;33;35747;-72
2022/07/25 03:06:22;;;;;;;7.40;4.12;;;;;;;21.23;53.05;99912.66;4252687;33;35125;-72
2022/07/25 03:09:08;;;;;;;7.82;4.50;;;;;;;21.07;53.59;99910.06;4253282;33;35452;-72
2022/07/25 03:11:54;;;;;;;8.02;4.90;;;;;;;21.26;52.90;99906.34;4252526;33;35889;-72
2022/07/25 03:14:41;;;;;;;7.65;4.22;;;;;;;21.26;53.03;99909.13;4256383;33;34216;-72
2022/07/25 03:17:27;;;;;;;7.43;4.30;;;;;;;21.22;52.99;99906.28;4253357;33;32644;-72
2022/07/25 03:20:13;;;;;;;6.75;4.25;;;;;;;21.00;53.89;99918.31;4247885;33;34469;-72
2022/07/25 03:23:00;;;;;;;7.03;3.95;;;;;;;20.48;55.40;99912.25;4255931;33;35072;-72
2022/07/25 03:25:46;;;;;;;7.97;4.37;;;;;;;20.75;55.25;99915.94;4254285;33;34288;-72
2022/07/25 03:28:32;;;;;;;6.50;4.30;;;;;;;21.05;54.65;99918.78;4249107;33;35182;-72
2022/07/25 03:31:18;;;;;;;7.68;4.90;;;;;;;20.80;55.53;99912.03;4255277;33;34680;-72
2022/07/25 03:34:04;;;;;;;8.75;4.25;;;;;;;20.10;57.72;99913.97;4253757;33;36297;-70
2022/07/25 03:36:51;;;;;;;7.35;3.80;;;;;;;20.79;56.31;99916.78;4233992;33;35314;-70
2022/07/25 03:39:37;;;;;;;6.30;4.00;;;;;;;20.84;55.77;99921.25;4254267;33;34477;-70
2022/07/25 03:42:23;;;;;;;6.80;4.20;;;;;;;21.10;54.32;99920.47;4254739;33;34517;-70
2022/07/25 03:45:12;;;;;;;8.07;4.07;;;;;;;21.13;53.95;99925.28;4252690;33;34414;-71
2022/07/25 03:47:58;;;;;;;6.55;4.20;;;;;;;;;;4255186;33;35553;-70
2022/07/25 03:50:44;;;;;;;9.88;4.40;;;;;;;21.07;53.87;99922.00;4255532;33;34982;-70
2022/07/25 03:53:30;;;;;;;7.62;4.07;;;;;;;20.39;55.72;99920.84;4255573;33;34643;-70
2022/07/25 03:56:17;;;;;;;8.35;4.07;;;;;;;20.60;55.47;99922.44;4254013;33;35058;-71
2022/07/25 03:59:04;;;;;;;6.70;4.18;;;;;;;20.14;58.85;99925.97;4248357;33;35544;-70
2022/07/25 04:01:51;;;;;;;5.82;3.75;;;;;;;19.94;58.29;99913.25;4245541;33;34135;-70
2022/07/25 04:04:37;;;;;;;7.47;4.05;;;;;;;20.92;54.36;99922.16;4243670;33;34615;-70
2022/07/25 04:07:24;;;;;;;7.05;4.22;;;;;;;20.35;56.15;99921.97;4254714;33;36004;-70
2022/07/25 04:10:10;;;;;;;6.50;4.10;;;;;;;20.13;57.87;99926.34;4253955;33;34763;-70
2022/07/25 04:12:56;;;;;;;7.50;4.37;;;;;;;19.98;59.36;99928.06;4253887;33;35050;-71
2022/07/25 04:15:43;;;;;;;7.75;4.22;;;;;;;20.39;57.76;99929.22;4263881;33;34580;-71
2022/07/25 04:18:29;;;;;;;8.93;4.57;;;;;;;20.70;56.39;99934.94;4250933;33;34593;-71
2022/07/25 04:21:19;;;;;;;6.90;4.28;;;;;;;21.14;54.89;99932.44;4253331;33;33657;-71
2022/07/25 04:24:06;;;;;;;8.90;4.65;;;;;;;20.77;56.19;99930.28;4240535;33;34112;-71
2022/07/25 04:26:52;;;;;;;7.40;4.35;;;;;;;20.61;56.74;99935.19;4246066;33;34665;-71
2022/07/25 04:29:39;;;;;;;6.65;4.53;;;;;;;20.70;56.32;99934.94;4254854;33;35016;-71
2022/07/25 04:32:25;;;;;;;9.13;5.10;;;;;;;20.84;55.92;99935.19;4258754;33;34939;-71
2022/07/25 04:35:11;;;;;;;7.20;4.62;;;;;;;20.08;58.35;99938.56;4242340;33;35424;-71
2022/07/25 04:37:58;;;;;;;9.00;4.70;;;;;;;20.28;58.40;99944.91;4265765;33;35446;-71
2022/07/25 04:40:45;;;;;;;8.20;4.65;;;;;;;20.34;58.78;99939.84;4258484;33;36585;-71
2022/07/25 04:43:31;;;;;;;10.82;4.50;;;;;;;20.70;57.63;99940.50;4256262;33;34526;-71
2022/07/25 04:46:21;;;;;;;8.40;4.40;;;;;;;20.87;57.29;99931.66;4254968;33;34186;-71
2022/07/25 04:49:08;;;;;;;8.93;4.47;;;;;;;21.01;56.50;99933.84;4260972;33;34411;-71
2022/07/25 04:51:54;;;;;;;9.18;4.50;;;;;;;21.43;55.26;99935.66;4256606;33;37601;-72
2022/07/25 04:54:41;;;;;;;6.28;4.32;;;;;;;21.41;55.87;99944.44;4256217;33;35147;-71
2022/07/25 04:57:27;;;;;;;8.65;4.57;;;;;;;20.92;57.03;99936.91;4254739;33;34193;-72
2022/07/25 05:00:14;;;;;;;7.78;4.35;;;;;;;20.56;58.26;99935.50;4255854;33;35616;-72
2022/07/25 05:03:01;;;;;;;7.70;4.47;;;;;;;21.08;56.50;99934.75;4265902;33;35715;-71
2022/07/25 05:05:47;;;;;;;10.55;5.85;;;;;;;21.67;55.65;99943.56;4270082;33;34707;-71
2022/07/25 05:08:33;;;;;;;8.93;4.12;;;;;;;21.70;54.79;99942.03;4257312;33;34162;-71
2022/07/25 05:11:20;;;;;;;7.25;4.20;;;;;;;21.59;54.70;99946.66;4255721;33;34736;-71
2022/07/25 05:14:06;;;;;;;7.70;3.72;;;;;;;21.27;55.54;99942.19;4265801;33;34806;-71
2022/07/25 05:16:53;;;;;;;7.65;4.03;;;;;;;21.59;55.16;99943.84;4249291;33;34442;-71
2022/07/25 05:19:39;;;;;;;7.90;4.45;;;;;;;22.18;53.40;99945.00;4262103;33;33689;-71
2022/07/25 05:22:26;;;;;;;7.97;3.78;;;;;;;21.79;53.53;99942.53;4260299;33;34336;-72
2022/07/25 05:25:14;;;;;;;6.30;4.05;;;;;;;21.82;53.57;99947.34;4252758;33;35005;-72
2022/07/25 05:28:01;;;;;;;7.00;3.53;;;;;;;22.00;51.89;99934.44;4252061;33;34822;-71
2022/07/25 05:30:48;;;;;;;6.20;4.10;;;;;;;22.18;52.08;99940.22;4259100;33;34417;-72
2022/07/25 05:33:34;;;;;;;7.22;3.67;;;;;;;22.54;51.34;99939.78;4262163;33;35195;-71
2022/07/25 05:36:20;;;;;;;6.25;3.72;;;;;;;23.08;50.46;99933.47;4253022;33;34886;-72
2022/07/25 05:39:07;;;;;;;5.03;3.78;;;;;;;22.89;50.82;99931.72;4257277;33;34670;-71
2022/07/25 05:41:53;;;;;;;6.57;3.60;;;;;;;23.31;50.99;99922.06;4253914;33;34174;-71
2022/07/25 05:44:40;;;;;;;4.65;3.45;;;;;;;23.16;50.55;99925.13;4257337;33;34740;-72
2022/07/25 05:47:26;;;;;;;6.20;3.37;;;;;;;23.61;46.84;99923.78;4254393;33;34554;-72
2022/07/25 05:50:13;;;;;;;7.20;3.55;;;;;;;23.34;47.75;99915.69;4263183;33;34757;-72
2022/07/25 05:52:59;;;;;;;6.25;3.42;;;;;;;23.82;47.35;99914.69;4254622;33;33646;-72
2022/07/25 05:55:45;;;;;;;7.30;3.62;;;;;;;23.71;46.17;99920.28;4251195;33;34620;-72
2022/07/25 05:58:32;;;;;;;6.70;3.35;;;;;;;23.28;46.99;99920.03;4258503;33;35062;-72
2022/07/25 06:01:19;;;;;;;5.95;3.60;;;;;;;23.47;45.58;99924.50;4260497;33;35541;-73
2022/07/25 06:04:05;;;;;;;8.18;3.50;;;;;;;23.66;45.91;99920.62;4248626;33;33221;-72
2022/07/25 06:06:52;;;;;;;7.72;3.50;;;;;;;24.08;44.14;99913.59;4260572;33;34634;-71
2022/07/25 06:09:39;;;;;;;6.35;3.60;;;;;;;24.76;43.45;99916.53;4253325;33;34669;-72
2022/07/25 06:12:25;;;;;;;5.87;3.50;;;;;;;24.92;42.99;99918.91;4259289;33;34737;-71
2022/07/25 06:15:11;;;;;;;6.95;3.78;;;;;;;25.10;41.06;99921.69;4253481;33;34176;-71
2022/07/25 06:18:12;;;;;;;6.50;4.07;;;;;;;24.71;42.67;99913.31;4249909;33;35593;-71
2022/07/25 06:20:58;;;;;;;8.93;3.45;;;;;;;25.41;41.55;99908.81;4241629;33;35061;-71
2022/07/25 06:23:44;;;;;;;9.05;3.87;;;;;;;25.48;41.68;99911.63;4254593;33;35608;-71
2022/07/25 06:26:31;;;;;;;6.05;3.30;;;;;;;25.10;41.00;99908.47;4254337;33;33997;-71
2022/07/25 06:29:17;;;;;;;6.85;3.20;;;;;;;25.27;39.44;99908.84;4257253;33;35177;-70
2022/07/25 06:32:04;;;;;;;7.10;3.45;;;;;;;25.40;39.52;99910.03;4255808;33;34988;-71
2022/07/25 06:34:50;;;;;;;8.50;3.83;;;;;;;25.65;40.27;99907.16;4247912;33;35610;-71
2022/07/25 06:37:38;;;;;;;5.93;3.60;;;;;;;25.26;39.89;99904.47;4252641;33;33995;-72
2022/07/25 06:40:24;;;;;;;5.25;3.83;;;;;;;26.03;39.86;99896.94;4243103;33;35583;-71
2022/07/25 06:43:10;;;;;;;6.47;3.53;;;;;;;26.15;38.09;99901.28;4254182;33;34376;-72
2022/07/25 06:45:56;;;;;;;4.57;3.35;;;;;;;25.98;38.26;99900.19;4246595;33;34242;-71
2022/07/25 06:48:43;;;;;;;5.10;3.45;;;;;;;26.08;38.36;99895.72;4254843;33;34577;-71
2022/07/25 06:51:29;;;;;;;7.00;3.67;;;;;;;26.41;37.96;99897.13;4255642;33;35554;-71
2022/07/25 06:54:17;;;;;;;6.60;3.80;;;;;;;26.16;37.75;99899.31;4268078;33;35632;-72
2022/07/25 06:57:03;;;;;;;4.35;3.30;;;;;;;26.10;38.81;99903.72;4254704;33;36040;-71
2022/07/25 06:59:50;;;;;;;5.30;3.87;;;;;;;26.56;38.29;99885.81;4256910;33;34114;-72
2022/07/25 07:02:57;;;;;;;6.07;3.67;;;;;;;26.63;37.07;99888.53;4250195;33;34245;-72
2022/07/25 07:05:44;;;;;;;6.05;3.60;;;;;;;26.49;38.11;99889.41;4237269;33;34999;-72
2022/07/25 07:08:30;;;;;;;5.50;3.55;;;;;;;26.27;38.29;99883.19;4251424;33;34569;-73
2022/07/25 07:11:16;;;;;;;6.28;3.47;;;;;;;26.62;38.15;99889.75;4257227;33;33801;-72
2022/07/25 07:14:03;;;;;;;7.20;3.53;;;;;;;26.54;36.32;99879.78;4243749;33;34405;-72
2022/07/25 07:16:50;;;;;;;8.63;3.58;;;;;;;26.78;35.78;99875.97;4261066;33;35081;-72
2022/07/25 07:19:42;;;;;;;5.72;3.80;;;;;;;26.96;35.63;99875.00;4254386;33;34575;-72
2022/07/25 07:22:29;;;;;;;6.60;4.07;;;;;;;26.62;36.88;99884.94;4245328;33;34393;-73
2022/07/25 07:25:17;;;;;;;9.38;4.18;;;;;;;26.87;36.06;99890.34;4253812;33;34736;-72
2022/07/25 07:28:05;;;;;;;6.40;4.00;;;;;;;27.61;35.71;99875.91;4250069;33;36031;-72
2022/07/25 07:30:51;;;;;;;5.03;3.83;;;;;;;27.58;36.02;99882.38;4243627;33;34998;-72
2022/07/25 07:33:58;;;;;;;7.10;4.03;;;;;;;27.30;35.96;99887.13;4245973;33;34945;-72
2022/07/25 07:36:44;;;;;;;7.22;3.90;;;;;;;27.44;35.32;99877.72;4246571;33;34349;-72
2022/07/25 07:39:30;;;;;;;6.10;3.85;;;;;;;27.36;34.89;99874.19;4255174;33;34968;-73
2022/07/25 07:42:17;;;;;;;5.47;3.90;;;;;;;28.05;34.58;99881.78;4234373;33;34597;-72
2022/07/25 07:45:10;;;;;;;9.07;4.25;;;;;;;27.90;35.71;99884.00;4254403;33;33602;-73
2022/07/25 07:47:56;;;;;;;8.52;4.10;;;;;;;28.35;34.37;99878.09;4255598;33;34072;-73
2022/07/25 07:50:42;;;;;;;6.30;4.10;;;;;;;28.05;33.55;99873.31;4246256;33;34368;-73
2022/07/25 07:56:34;;;;;;;7.40;4.10;;;;;;;28.32;32.97;99876.94;4253655;33;33817;-72
2022/07/25 07:59:20;;;;;;;6.93;4.18;;;;;;;27.79;33.04;99868.03;4242963;33;35564;-72
2022/07/25 08:02:10;;;;;;;6.30;4.60;;;;;;;27.89;33.92;99871.13;4258667;33;35182;-73
2022/07/25 08:04:56;;;;;;;6.30;4.18;;;;;;;28.11;33.84;99868.81;4250478;33;34479;-72
2022/07/25 08:07:43;;;;;;;7.25;4.43;;;;;;;28.48;32.96;99877.09;4240638;33;34195;-72
2022/07/25 08:10:31;;;;;;;6.25;4.18;;;;;;;28.59;32.45;99860.00;4256485;33;34357;-72
2022/07/25 08:13:23;;;;;;;7.60;4.20;;;;;;;28.61;32.61;99874.47;4243125;33;35946;-73
2022/07/25 08:16:10;;;;;;;7.78;4.47;;;;;;;28.60;32.24;99866.44;4246522;33;35641;-73
2022/07/25 08:18:57;;;;;;;8.57;4.68;;;;;;;28.73;31.76;99863.81;4252050;33;34206;-73
2022/07/25 08:21:43;;;;;;;6.05;4.57;;;;;;;29.14;31.08;99867.12;4255978;33;34766;-73
2022/07/25 08:24:32;;;;;;;6.40;4.32;;;;;;;28.98;31.89;99855.69;4253818;33;35093;-71
2022/07/25 08:27:19;;;;;;;7.22;4.62;;;;;;;29.27;31.45;99850.31;4252814;33;35296;-72
2022/07/25 08:30:07;;;;;;;7.12;4.10;;;;;;;28.96;32.09;99848.91;4253406;33;32903;-71
2022/07/25 08:33:02;;;;;;;12.02;4.28;;;;;;;29.31;32.22;99848.22;4249200;33;34807;-71
2022/07/25 08:36:00;;;;;;;7.00;4.30;;;;;;;29.63;30.97;99846.81;4253683;33;36454;-74
2022/07/25 08:38:49;;;;;;;7.78;4.85;;;;;;;28.62;31.01;99844.25;4253777;33;34470;-74
2022/07/25 08:41:39;;;;;;;6.50;4.70;;;;;;;28.75;32.15;99848.06;4257468;33;35725;-71
2022/07/25 08:44:30;;;;;;;7.35;4.20;;;;;;;29.73;30.96;99844.97;4258611;33;35171;-72
2022/07/25 08:47:17;;;;;;;8.75;4.70;;;;;;;30.10;30.03;99851.38;4256363;33;34869;-72
2022/07/25 08:50:07;;;;;;;7.32;4.97;;;;;;;29.23;30.63;99837.50;4248114;33;34679;-72
2022/07/25 08:52:53;;;;;;;7.10;4.97;;;;;;;29.82;31.48;99842.34;4245654;33;35125;-72
2022/07/25 08:56:00;;;;;;;8.70;5.18;;;;;;;29.15;30.23;99836.88;4253344;33;34685;-72
2022/07/25 08:58:57;;;;;;;7.30;4.72;;;;;;;29.22;31.35;99828.25;4254446;33;35609;-72
2022/07/25 09:01:44;;;;;;;12.60;5.07;;;;;;;28.93;32.64;99830.81;4252834;33;35398;-72
2022/07/25 09:04:32;;;;;;;9.55;4.45;;;;;;;30.09;31.83;99839.31;4256664;33;35133;-73
2022/07/25 09:07:39;;;;;;;5.85;4.68;;;;;;;30.72;30.97;99826.84;4248373;33;35555;-73
2022/07/25 09:10:27;;;;;;;5.93;4.72;;;;;;;29.03;31.18;99832.66;4247309;33;35022;-72
2022/07/25 09:13:13;;;;;;;12.52;5.20;;;;;;;29.63;30.25;99829.84;4245613;33;35497;-72
2022/07/25 09:16:00;;;;;;;6.55;4.32;;;;;;;30.07;30.76;99835.31;4254360;33;34927;-72
2022/07/25 09:18:46;;;;;;;6.85;4.93;;;;;;;29.44;30.51;99822.19;4262493;33;35277;-73
2022/07/25 09:21:32;;;;;;;6.62;4.68;;;;;;;28.94;31.48;99812.66;4266135;33;34803;-72
2022/07/25 09:24:21;;;;;;;6.62;4.75;;;;;;;29.59;29.52;99815.78;4260918;33;34690;-73
2022/07/25 09:27:08;;;;;;;7.00;4.90;;;;;;;29.70;31.07;99817.59;4257342;33;34178;-73
2022/07/25 09:29:58;;;;;;;12.13;5.00;;;;;;;30.23;29.25;99812.75;4251023;33;34615;-73
2022/07/25 09:32:44;;;;;;;7.78;4.80;;;;;;;30.47;28.85;99814.16;4261844;33;34694;-73
2022/07/25 09:35:34;;;;;;;8.55;4.75;;;;;;;30.80;29.76;99814.16;4266602;33;34542;-73
2022/07/25 09:38:21;;;;;;;5.78;4.20;;;;;;;31.20;29.93;99808.19;4266524;33;34122;-73
2022/07/25 09:41:08;;;;;;;7.82;5.30;;;;;;;30.43;27.91;99807.81;4255494;33;34704;-72
2022/07/25 09:43:54;;;;;;;5.65;4.22;;;;;;;30.71;27.64;99799.81;4258310;33;34554;-73
2022/07/25 09:46:40;;;;;;;6.97;5.00;;;;;;;30.65;26.92;99795.91;4269296;33;35224;-73
2022/07/25 09:49:41;;;;;;;7.80;4.50;;;;;;;31.42;26.14;99790.59;4259067;33;34299;-73
2022/07/25 09:52:27;;;;;;;7.50;4.43;;;;;;;31.64;26.58;99790.72;4256377;33;34600;-73
2022/07/25 09:55:15;;;;;;;7.65;4.35;;;;;;;31.79;26.03;99791.88;4271212;33;34936;-73
2022/07/25 09:58:02;;;;;;;7.20;4.65;;;;;;;32.34;25.83;99786.09;4256035;33;34629;-73
2022/07/25 10:00:48;;;;;;;7.53;4.53;;;;;;;31.53;26.80;99780.50;4247449;33;34729;-73
2022/07/25 10:03:49;;;;;;;13.88;5.18;;;;;;;32.73;25.21;99772.59;4242924;33;34726;-73
2022/07/25 10:06:40;;;;;;;8.57;5.10;;;;;;;31.64;27.21;99768.88;4255743;33;35951;-73
2022/07/25 10:09:26;;;;;;;;;;;;;;;31.47;28.96;99773.03;4258609;33;35699;-73
2022/07/25 10:12:14;;;;;;;9.88;5.07;;;;;;;31.16;26.61;99779.19;4245555;33;35083;-72
2022/07/25 10:15:04;;;;;;;8.25;5.10;;;;;;;28.99;29.67;99769.06;4254541;33;35538;-72
2022/07/25 10:18:01;;;;;;;6.40;4.75;;;;;;;29.45;29.32;99768.09;4251637;33;35999;-73
2022/07/25 10:20:51;;;;;;;8.60;4.75;;;;;;;29.54;29.05;99762.66;4254629;33;35377;-73
2022/07/25 10:23:37;;;;;;;8.00;4.65;;;;;;;30.77;27.72;99760.47;4258761;33;33791;-73
2022/07/25 10:26:24;;;;;;;5.72;4.50;;;;;;;31.44;27.10;99754.91;4258884;33;34716;-73
2022/07/25 10:29:11;;;;;;;10.07;4.47;;;;;;;31.89;26.37;99741.78;4259161;33;35049;-73
2022/07/25 10:32:05;;;;;;;6.82;4.93;;;;;;;32.54;26.49;99752.59;4254354;33;34459;-72
2022/07/25 10:34:52;;;;;;;7.15;4.53;;;;;;;33.29;24.06;99743.38;4253064;33;34327;-74
2022/07/25 10:37:39;;;;;;;7.05;4.68;;;;;;;33.49;24.31;99738.09;4259393;33;34460;-73
2022/07/25 10:40:31;;;;;;;7.30;4.60;;;;;;;32.41;24.30;99737.62;4262118;33;35055;-73
2022/07/25 10:43:20;;;;;;;6.47;4.37;;;;;;;33.28;24.66;99728.38;4257479;33;35567;-73
2022/07/25 10:46:12;;;;;;;8.38;4.30;;;;;;;33.96;24.16;99727.75;4255160;33;34177;-73
2022/07/25 10:49:01;;;;;;;6.68;4.62;;;;;;;34.43;23.57;99720.88;4258480;33;33458;-73
2022/07/25 10:51:55;;;;;;;7.40;4.47;;;;;;;34.26;22.24;99726.06;4255012;33;35709;-73
2022/07/25 10:54:52;;;;;;;8.23;4.47;;;;;;;34.63;22.22;99714.75;4257573;33;34305;-73
2022/07/25 10:57:38;;;;;;;7.68;4.60;;;;;;;34.80;21.63;99720.91;4262868;33;34272;-73
2022/07/25 11:00:44;;;;;;;8.20;4.32;;;;;;;34.18;22.71;99714.25;4255440;33;34689;-74
2022/07/25 11:03:32;;;;;;;5.17;4.10;;;;;;;33.85;22.69;99704.66;4250190;33;35013;-74
2022/07/25 11:06:39;;;;;;;5.40;4.10;;;;;;;32.96;22.77;99706.91;4255107;33;34640;-74
2022/07/25 11:09:26;;;;;;;6.05;4.22;;;;;;;33.80;22.23;99704.00;4245139;33;34407;-74
2022/07/25 11:12:15;;;;;;;7.82;4.10;;;;;;;34.36;22.18;99687.06;4246211;33;35209;-74
2022/07/25 11:15:04;;;;;;;5.95;3.97;;;;;;;34.68;21.06;99691.34;4232460;33;35606;-74
2022/07/25 11:17:51;;;;;;;6.32;4.65;;;;;;;34.75;21.85;99688.16;4261306;33;34440;-74
2022/07/25 11:20:37;;;;;;;5.68;3.72;;;;;;;35.62;20.15;99674.34;4254978;33;33780;-74
2022/07/25 11:23:24;;;;;;;6.15;4.25;;;;;;;35.70;19.63;99677.62;4258359;33;34762;-75
2022/07/25 11:26:12;;;;;;;5.30;4.00;;;;;;;35.12;20.29;99671.03;4257500;33;33844;-74
2022/07/25 11:28:58;;;;;;;7.40;3.55;;;;;;;33.47;20.46;99675.31;4258433;33;96811;-74
2022/07/25 11:31:51;;;;;;;7.22;3.95;;;;;;;33.34;21.33;99664.06;4255774;33;35775;-74
2022/07/25 11:34:49;;;;;;;6.10;3.60;;;;;;;33.69;21.29;99663.09;4258249;33;34740;-74
2022/07/25 11:37:37;;;;;;;5.70;3.45;;;;;;;34.54;20.16;99660.69;4256040;33;36042;-73
2022/07/25 11:40:24;;;;;;;5.68;3.50;;;;;;;34.88;19.16;99660.31;4253894;33;34263;-74
2022/07/25 11:43:19;;;;;;;4.12;3.28;;;;;;;34.97;18.36;99648.13;4266242;33;34984;-74
2022/07/25 11:46:06;;;;;;;5.47;3.15;;;;;;;35.61;18.38;99647.12;4244469;33;34394;-72
2022/07/25 11:49:03;;;;;;;4.03;3.10;;;;;;;34.65;18.85;99644.72;4245964;33;34997;-74
2022/07/25 11:51:50;;;;;;;6.60;3.42;;;;;;;36.01;17.55;99634.53;4254966;33;34714;-74
2022/07/25 11:54:36;;;;;;;6.00;3.40;;;;;;;36.39;17.78;99632.97;4252361;33;34258;-74
2022/07/25 11:57:24;;;;;;;5.72;4.40;;;;;;;35.80;18.70;99625.78;4266715;33;34622;-74
2022/07/25 12:00:17;;;;;;;12.15;3.90;;;;;;;35.25;19.67;99623.22;4255399;33;34975;-74
2022/07/25 12:03:09;;;;;;;9.40;4.10;;;;;;;34.55;20.29;99628.09;4259353;33;36369;-74
2022/07/25 12:06:11;;;;;;;10.18;4.20;;;;;;;35.78;19.42;99614.09;4249575;33;33768;-74
2022/07/25 12:09:09;;;;;;;7.35;3.70;;;;;;;35.52;19.58;99621.50;4255507;33;34705;-74
2022/07/25 12:12:03;;;;;;;5.28;3.50;;;;;;;35.03;20.14;99619.78;4254267;33;35588;-74
2022/07/25 12:14:51;;;;;;;7.30;3.80;;;;;;;35.53;17.70;99615.31;4252252;33;35156;-74
2022/07/25 12:17:37;;;;;;;6.22;4.28;;;;;;;35.21;18.16;99608.38;4267099;33;34341;-74
2022/07/25 12:20:26;;;;;;;7.15;3.75;;;;;;;34.84;19.09;99611.34;4269599;33;35222;-74
2022/07/25 12:23:13;;;;;;;5.85;3.80;;;;;;;35.59;18.13;99601.22;4253937;33;35041;-74
2022/07/25 12:25:59;;;;;;;7.03;4.15;;;;;;;36.33;18.84;99597.84;4266120;33;36251;-74
2022/07/25 12:28:45;;;;;;;6.03;3.72;;;;;;;36.74;18.14;99600.91;4253550;33;34556;-74
2022/07/25 12:31:32;;;;;;;10.02;3.87;;;;;;;36.99;16.92;99585.25;4245491;33;34749;-74
2022/07/25 12:34:18;;;;;;;8.27;3.80;;;;;;;37.14;17.29;99577.47;4255137;33;34944;-74
2022/07/25 12:37:05;;;;;;;6.07;3.75;;;;;;;37.01;16.87;99566.37;4259769;33;34733;-73
2022/07/25 12:39:52;;;;;;;7.15;3.90;;;;;;;35.03;17.90;99566.50;4259116;33;35075;-74
2022/07/25 12:42:38;;;;;;;6.50;3.72;;;;;;;36.03;18.95;99569.22;4250994;33;34697;-73
2022/07/25 12:45:25;;;;;;;9.10;4.07;;;;;;;36.54;18.08;99551.03;4257912;33;36433;-74
2022/07/25 12:48:13;;;;;;;5.47;3.60;;;;;;;35.37;19.61;99548.12;4256003;33;35488;-74
2022/07/25 12:50:59;;;;;;;6.25;4.05;;;;;;;34.49;19.20;99551.94;4261596;33;34213;-73
2022/07/25 12:53:45;;;;;;;7.12;3.70;;;;;;;32.16;20.88;99555.06;4270150;33;37366;-74
2022/07/25 12:56:32;;;;;;;5.80;3.53;;;;;;;33.35;19.59;99551.25;4265932;33;34914;-74
2022/07/25 12:59:18;;;;;;;6.53;4.10;;;;;;;35.08;18.64;99536.63;4266545;33;35743;-74
2022/07/25 13:02:05;;;;;;;6.03;4.00;;;;;;;35.91;17.53;99536.06;4247798;33;34832;-74
2022/07/25 13:04:51;;;;;;;5.10;3.90;;;;;;;35.22;18.11;99535.13;4248968;33;35596;-74
2022/07/25 13:07:37;;;;;;;6.03;3.62;;;;;;;33.74;19.66;99531.78;4267256;33;34575;-74
2022/07/25 13:10:24;;;;;;;6.00;3.85;;;;;;;34.64;19.30;99528.56;4259153;33;35305;-74
2022/07/25 13:13:12;;;;;;;5.68;3.55;;;;;;;35.16;17.19;99517.91;4259640;33;34992;-74